createdAt,value
2023-03-17T00:02:11.300Z,2.65
2023-03-17T00:04:41.679Z,2.68
2023-03-17T00:07:13.273Z,2.67
2023-03-17T00:09:42.021Z,2.65
2023-03-17T00:12:11.636Z,2.68
2023-03-17T00:14:46.972Z,2.63
2023-03-17T00:17:15.765Z,2.62
2023-03-17T00:19:45.681Z,2.62
2023-03-17T00:22:18.800Z,2.61
2023-03-17T00:24:47.143Z,2.60
2023-03-17T00:27:16.248Z,2.65
2023-03-17T00:29:44.603Z,2.64
2023-03-17T00:32:18.292Z,2.61
2023-03-17T00:34:48.477Z,2.58
2023-03-17T00:37:17.451Z,2.59
2023-03-17T00:39:46.308Z,2.61
2023-03-17T00:42:15.481Z,2.56
2023-03-17T00:44:43.663Z,2.58
2023-03-17T00:47:13.091Z,2.56
2023-03-17T00:49:41.869Z,2.51
2023-03-17T00:52:13.098Z,2.48
2023-03-17T00:54:43.938Z,2.47
2023-03-17T00:57:12.703Z,2.46
2023-03-17T00:59:43.279Z,2.45
2023-03-17T01:02:14.604Z,2.50
2023-03-17T01:04:47.838Z,2.55
2023-03-17T01:07:24.245Z,2.50
2023-03-17T01:09:55.052Z,2.50
2023-03-17T01:12:24.835Z,2.48
2023-03-17T01:14:53.014Z,2.50
2023-03-17T01:17:22.090Z,2.52
2023-03-17T01:19:52.778Z,2.56
2023-03-17T01:22:22.589Z,2.59
2023-03-17T01:24:51.491Z,2.67
2023-03-17T01:27:19.641Z,2.65
2023-03-17T01:29:47.946Z,2.63
2023-03-17T01:32:18.640Z,2.67
2023-03-17T01:34:47.511Z,2.63
2023-03-17T01:37:16.031Z,2.64
2023-03-17T01:39:45.624Z,2.65
2023-03-17T01:42:17.602Z,2.65
2023-03-17T01:44:59.823Z,2.67
2023-03-17T01:47:32.007Z,2.72
2023-03-17T01:50:05.400Z,2.68
2023-03-17T01:52:35.944Z,2.67
2023-03-17T01:55:10.334Z,2.63
2023-03-17T01:57:45.038Z,2.66
2023-03-17T02:00:18.018Z,2.68
2023-03-17T02:02:48.858Z,2.71
2023-03-17T02:05:21.146Z,2.68
2023-03-17T02:07:49.926Z,2.72
2023-03-17T02:10:21.772Z,2.67
2023-03-17T02:12:54.578Z,2.60
2023-03-17T02:15:25.449Z,2.58
2023-03-17T02:17:54.254Z,2.58
2023-03-17T02:21:15.552Z,2.51
2023-03-17T02:23:45.215Z,2.47
2023-03-17T02:26:15.967Z,2.45
2023-03-17T02:28:46.097Z,2.40
2023-03-17T02:31:15.611Z,2.40
2023-03-17T02:33:45.321Z,2.43
2023-03-17T02:36:13.839Z,2.32
2023-03-17T02:38:49.625Z,2.24
2023-03-17T02:41:20.268Z,2.21
2023-03-17T02:43:48.739Z,2.11
2023-03-17T02:46:17.444Z,1.97
2023-03-17T02:48:50.952Z,1.87
2023-03-17T02:51:21.266Z,1.75
2023-03-17T02:53:51.259Z,1.73
2023-03-17T02:56:20.060Z,1.71
2023-03-17T03:01:36.313Z,1.56
2023-03-17T03:04:04.673Z,1.50
2023-03-17T03:06:32.752Z,1.46
2023-03-17T03:09:02.356Z,1.38
2023-03-17T03:11:31.139Z,1.31
2023-03-17T03:13:59.286Z,1.29
2023-03-17T03:16:27.415Z,1.29
2023-03-17T03:18:55.530Z,1.20
2023-03-17T03:21:23.780Z,1.11
2023-03-17T03:23:52.143Z,1.05
2023-03-17T03:26:21.961Z,0.97
2023-03-17T03:28:53.863Z,1.03
2023-03-17T03:31:22.743Z,1.06
2023-03-17T03:33:51.606Z,1.08
2023-03-17T03:36:19.672Z,1.00
2023-03-17T03:38:48.084Z,0.91
2023-03-17T03:41:16.446Z,0.72
2023-03-17T03:45:43.893Z,0.70
2023-03-17T03:48:15.195Z,0.65
2023-03-17T03:50:43.560Z,0.58
2023-03-17T03:53:11.745Z,0.54
2023-03-17T03:55:43.008Z,0.57
2023-03-17T03:58:11.564Z,0.60
2023-03-17T04:00:39.912Z,0.59
2023-03-17T04:03:12.420Z,0.52
2023-03-17T04:05:41.035Z,0.46
2023-03-17T04:08:12.249Z,0.38
2023-03-17T04:10:40.669Z,0.35
2023-03-17T04:13:09.844Z,0.34
2023-03-17T04:15:38.090Z,0.30
2023-03-17T04:18:06.626Z,0.29
2023-03-17T04:20:36.181Z,0.28
2023-03-17T04:23:04.528Z,0.44
2023-03-17T04:25:33.268Z,0.37
2023-03-17T04:28:01.854Z,0.30
2023-03-17T04:30:34.714Z,0.28
2023-03-17T04:33:03.110Z,0.21
2023-03-17T04:35:31.443Z,0.17
2023-03-17T04:38:03.565Z,0.09
2023-03-17T04:40:32.019Z,0.07
2023-03-17T04:43:02.962Z,0.07
2023-03-17T04:45:31.931Z,0.05
2023-03-17T04:48:00.130Z,0.03
2023-03-17T04:50:28.400Z,-0.03
2023-03-17T04:52:56.570Z,-0.09
2023-03-17T04:55:28.629Z,-0.10
2023-03-17T04:57:56.850Z,-0.18
2023-03-17T05:00:25.604Z,-0.23
2023-03-17T05:02:53.662Z,-0.23
2023-03-17T05:05:21.933Z,-0.30
2023-03-17T05:07:53.309Z,-0.33
2023-03-17T05:10:21.449Z,-0.38
2023-03-17T05:12:51.148Z,-0.37
2023-03-17T05:15:19.400Z,-0.38
2023-03-17T05:17:47.805Z,-0.39
2023-03-17T05:20:16.573Z,-0.41
2023-03-17T05:22:44.987Z,-0.46
2023-03-17T05:25:13.075Z,-0.42
2023-03-17T05:27:41.533Z,-0.39
2023-03-17T05:30:12.937Z,-0.38
2023-03-17T05:32:42.031Z,-0.33
2023-03-17T05:35:11.405Z,-0.30
2023-03-17T05:37:39.522Z,-0.21
2023-03-17T05:40:08.530Z,-0.07
2023-03-17T05:42:36.691Z,-0.02
2023-03-17T05:45:05.788Z,0.03
2023-03-17T05:47:36.156Z,-0.05
2023-03-17T05:50:09.100Z,-0.07
2023-03-17T05:52:39.373Z,-0.11
2023-03-17T05:55:09.360Z,-0.14
2023-03-17T05:57:38.013Z,-0.18
2023-03-17T06:00:12.677Z,-0.17
2023-03-17T06:02:45.701Z,-0.09
2023-03-17T06:05:16.642Z,0.07
2023-03-17T06:07:53.985Z,0.32
2023-03-17T06:10:25.212Z,0.68
2023-03-17T06:12:53.324Z,0.78
2023-03-17T06:15:24.020Z,0.89
2023-03-17T06:17:53.418Z,1.04
2023-03-17T06:20:22.162Z,1.08
2023-03-17T06:23:03.321Z,1.24
2023-03-17T06:25:33.076Z,1.38
2023-03-17T06:28:02.833Z,1.58
2023-03-17T06:30:34.513Z,1.79
2023-03-17T06:33:04.609Z,2.00
2023-03-17T06:35:36.183Z,2.26
2023-03-17T06:38:05.081Z,2.53
2023-03-17T06:40:34.276Z,2.76
2023-03-17T06:43:02.970Z,3.12
2023-03-17T06:45:32.952Z,3.59
2023-03-17T06:48:05.006Z,4.27
2023-03-17T06:50:33.119Z,4.98
2023-03-17T06:53:03.718Z,5.69
2023-03-17T06:55:33.379Z,6.53
2023-03-17T06:58:04.224Z,7.12
2023-03-17T07:00:33.069Z,7.76
2023-03-17T07:03:02.986Z,8.21
2023-03-17T07:05:33.499Z,8.88
2023-03-17T07:08:01.913Z,9.36
2023-03-17T07:10:30.453Z,9.55
2023-03-17T07:13:02.360Z,9.27
2023-03-17T07:15:34.503Z,9.87
2023-03-17T07:18:02.994Z,10.57
2023-03-17T07:20:32.835Z,10.87
2023-03-17T07:23:01.526Z,11.35
2023-03-17T07:25:30.223Z,12.44
2023-03-17T07:28:01.175Z,12.77
2023-03-17T07:30:31.939Z,12.10
2023-03-17T07:33:00.094Z,12.80
2023-03-17T07:38:21.081Z,12.73
2023-03-17T07:40:53.100Z,12.46
2023-03-17T07:43:21.908Z,12.60
2023-03-17T07:45:50.431Z,13.67
2023-03-17T07:48:19.857Z,14.51
2023-03-17T07:50:49.745Z,14.60
2023-03-17T07:53:18.623Z,15.23
2023-03-17T07:55:47.522Z,14.24
2023-03-17T07:58:18.268Z,14.21
2023-03-17T08:00:46.736Z,13.89
2023-03-17T08:03:14.925Z,14.32
2023-03-17T08:06:03.864Z,12.84
2023-03-17T08:08:32.507Z,13.09
2023-03-17T08:11:03.660Z,12.85
2023-03-17T08:13:32.190Z,13.82
2023-03-17T08:16:02.506Z,13.47
2023-03-17T08:18:31.051Z,13.00
2023-03-17T08:20:59.234Z,12.76
2023-03-17T08:23:29.190Z,12.92
2023-03-17T08:25:58.607Z,13.86
2023-03-17T08:28:29.207Z,14.60
2023-03-17T08:31:12.084Z,14.47
2023-03-17T08:33:43.848Z,14.70
2023-03-17T08:36:12.848Z,14.86
2023-03-17T08:38:43.849Z,15.35
2023-03-17T08:41:15.207Z,15.37
2023-03-17T08:46:44.945Z,17.64
2023-03-17T08:49:14.059Z,17.63
2023-03-17T08:51:42.118Z,16.68
2023-03-17T08:54:11.132Z,15.30
2023-03-17T08:56:40.951Z,15.60
2023-03-17T08:59:10.465Z,14.27
2023-03-17T09:01:40.230Z,15.38
2023-03-17T09:04:15.455Z,16.09
2023-03-17T09:07:01.352Z,15.22
2023-03-17T09:09:32.102Z,15.98
2023-03-17T09:12:00.589Z,15.24
2023-03-17T09:14:31.718Z,15.13
2023-03-17T09:17:04.042Z,15.27
2023-03-17T09:19:39.061Z,15.62
2023-03-17T09:22:07.742Z,15.45
2023-03-17T09:24:36.669Z,15.15
2023-03-17T09:27:04.851Z,14.62
2023-03-17T09:29:33.948Z,13.37
2023-03-17T09:32:04.190Z,13.78
2023-03-17T09:34:33.051Z,14.40
2023-03-17T09:37:02.847Z,14.44
2023-03-17T09:39:31.322Z,14.98
2023-03-17T09:42:19.697Z,14.73
2023-03-17T09:45:13.567Z,15.29
2023-03-17T09:48:14.459Z,14.62
2023-03-17T09:50:48.786Z,13.93
2023-03-17T09:53:21.827Z,14.59
2023-03-17T09:55:56.217Z,14.56
2023-03-17T09:58:32.002Z,14.19
2023-03-17T10:01:01.422Z,14.67
2023-03-17T10:03:29.632Z,14.95
2023-03-17T10:06:13.408Z,16.41
2023-03-17T10:08:52.182Z,17.44
2023-03-17T10:11:33.175Z,17.20
2023-03-17T10:14:04.565Z,17.51
2023-03-17T10:16:41.676Z,17.59
2023-03-17T10:19:17.618Z,18.12
2023-03-17T10:21:52.978Z,16.46
2023-03-17T10:24:24.446Z,16.56
2023-03-17T10:26:54.506Z,16.87
2023-03-17T10:29:24.189Z,16.77
2023-03-17T10:31:56.273Z,16.52
2023-03-17T10:34:29.858Z,16.92
2023-03-17T10:37:05.546Z,16.62
2023-03-17T10:39:46.180Z,16.39
2023-03-17T10:42:22.747Z,16.37
2023-03-17T10:44:55.006Z,17.04
2023-03-17T10:47:31.805Z,17.30
2023-03-17T10:50:05.588Z,16.62
2023-03-17T10:52:41.015Z,16.87
2023-03-17T10:55:15.837Z,16.10
2023-03-17T10:57:53.254Z,15.27
2023-03-17T11:00:23.350Z,15.17
2023-03-17T11:02:57.430Z,16.02
2023-03-17T11:05:27.674Z,15.78
2023-03-17T11:07:59.909Z,15.85
2023-03-17T11:10:30.587Z,16.21
2023-03-17T11:13:01.910Z,15.71
2023-03-17T11:15:34.935Z,16.05
2023-03-17T11:18:06.017Z,16.07
2023-03-17T11:20:47.532Z,15.75
2023-03-17T11:23:31.721Z,16.56
2023-03-17T11:26:14.906Z,16.45
2023-03-17T11:28:48.729Z,17.07
2023-03-17T11:31:27.556Z,17.01
2023-03-17T11:34:04.499Z,16.93
2023-03-17T11:36:46.092Z,16.90
2023-03-17T11:39:17.842Z,15.68
2023-03-17T11:41:55.079Z,15.47
2023-03-17T11:44:43.363Z,15.52
2023-03-17T11:47:23.567Z,15.57
2023-03-17T11:50:04.754Z,15.88
2023-03-17T11:52:41.345Z,15.29
2023-03-17T11:55:21.760Z,14.92
2023-03-17T11:57:57.092Z,15.01
2023-03-17T12:00:30.044Z,15.32
2023-03-17T12:03:09.752Z,15.21
2023-03-17T12:05:39.653Z,15.72
2023-03-17T12:08:16.383Z,14.96
2023-03-17T12:10:49.533Z,15.10
2023-03-17T12:13:25.925Z,15.07
2023-03-17T12:15:58.870Z,15.48
2023-03-17T12:18:32.999Z,15.25
2023-03-17T12:21:10.933Z,15.07
2023-03-17T12:23:45.573Z,15.34
2023-03-17T12:26:16.413Z,15.76
2023-03-17T12:28:52.398Z,15.43
2023-03-17T12:31:23.927Z,15.66
2023-03-17T12:34:00.567Z,15.23
2023-03-17T12:36:29.241Z,15.54
2023-03-17T12:39:01.971Z,16.19
2023-03-17T12:41:49.052Z,15.93
2023-03-17T12:44:33.088Z,15.40
2023-03-17T12:47:18.323Z,15.41
2023-03-17T12:50:14.479Z,15.18
2023-03-17T12:53:05.093Z,15.06
2023-03-17T12:55:36.137Z,15.10
2023-03-17T12:58:07.741Z,15.08
2023-03-17T13:00:50.709Z,15.14
2023-03-17T13:03:25.695Z,15.19
2023-03-17T13:06:07.587Z,15.11
2023-03-17T13:08:38.131Z,15.35
2023-03-17T13:11:18.084Z,15.36
2023-03-17T13:13:56.165Z,15.36
2023-03-17T13:16:33.229Z,15.11
2023-03-17T13:19:32.708Z,15.21
2023-03-17T13:22:34.351Z,14.97
2023-03-17T13:25:15.724Z,15.15
2023-03-17T13:27:46.540Z,15.13
2023-03-17T13:30:44.544Z,14.97
2023-03-17T13:33:24.303Z,15.13
2023-03-17T13:36:08.065Z,15.07
2023-03-17T13:39:15.070Z,15.20
2023-03-17T13:42:17.987Z,14.96
2023-03-17T13:47:46.148Z,14.94
2023-03-17T13:50:17.576Z,14.96
2023-03-17T13:52:49.891Z,15.03
2023-03-17T13:55:38.707Z,15.03
2023-03-17T13:58:35.342Z,15.03
2023-03-17T14:01:09.078Z,14.71
2023-03-17T14:03:44.962Z,14.67
2023-03-17T14:06:17.102Z,14.68
2023-03-17T14:08:49.037Z,14.68
2023-03-17T14:11:24.090Z,14.73
2023-03-17T14:14:09.833Z,14.70
2023-03-17T14:16:45.609Z,14.70
2023-03-17T14:19:21.072Z,14.76
2023-03-17T14:21:50.322Z,14.87
2023-03-17T14:24:22.375Z,14.85
2023-03-17T14:26:54.221Z,15.00
2023-03-17T14:29:27.861Z,14.89
2023-03-17T14:32:04.797Z,14.67
2023-03-17T14:34:34.790Z,14.57
2023-03-17T14:37:04.382Z,14.51
2023-03-17T14:39:32.662Z,14.58
2023-03-17T14:42:02.883Z,14.57
2023-03-17T14:44:37.792Z,14.67
2023-03-17T14:47:13.043Z,14.87
2023-03-17T14:49:42.623Z,14.95
2023-03-17T14:52:20.171Z,15.00
2023-03-17T14:54:53.902Z,14.93
2023-03-17T14:57:27.283Z,14.97
2023-03-17T15:00:00.359Z,14.88
2023-03-17T15:02:35.393Z,14.78
2023-03-17T15:05:12.887Z,14.75
2023-03-17T15:07:43.186Z,14.81
2023-03-17T15:10:17.066Z,14.90
2023-03-17T15:12:48.773Z,14.85
2023-03-17T15:15:25.926Z,14.76
2023-03-17T15:17:58.466Z,14.83
2023-03-17T15:20:31.071Z,14.69
2023-03-17T15:23:20.924Z,14.66
2023-03-17T15:25:55.675Z,14.53
2023-03-17T15:28:29.123Z,14.43
2023-03-17T15:31:12.115Z,14.47
2023-03-17T15:33:42.661Z,14.47
2023-03-17T15:36:33.525Z,14.46
2023-03-17T15:39:03.651Z,14.59
2023-03-17T15:41:32.103Z,14.43
2023-03-17T15:44:00.277Z,14.35
2023-03-17T15:46:32.280Z,14.36
2023-03-17T15:49:01.229Z,14.30
2023-03-17T15:51:31.075Z,14.24
2023-03-17T15:53:59.359Z,14.17
2023-03-17T15:56:27.855Z,14.00
2023-03-17T15:58:56.057Z,13.97
2023-03-17T16:01:35.954Z,13.93
2023-03-17T16:04:07.225Z,13.71
2023-03-17T16:06:37.532Z,13.71
2023-03-17T16:09:07.900Z,13.67
2023-03-17T16:11:36.381Z,13.71
2023-03-17T16:14:04.872Z,13.60
2023-03-17T16:16:38.272Z,13.55
2023-03-17T16:19:10.292Z,13.48
2023-03-17T16:21:45.534Z,13.40
2023-03-17T16:24:19.906Z,13.34
2023-03-17T16:26:56.235Z,13.30
2023-03-17T16:29:24.741Z,13.22
2023-03-17T16:31:57.159Z,13.15
2023-03-17T16:34:30.695Z,13.05
2023-03-17T16:37:03.554Z,13.04
2023-03-17T16:39:32.405Z,12.99
2023-03-17T16:42:02.387Z,12.91
2023-03-17T16:44:36.734Z,12.79
2023-03-17T16:47:09.304Z,12.71
2023-03-17T16:49:55.118Z,12.64
2023-03-17T16:52:33.731Z,12.58
2023-03-17T16:55:13.485Z,12.48
2023-03-17T16:57:51.538Z,12.38
2023-03-17T17:00:28.221Z,12.28
2023-03-17T17:03:19.605Z,12.17
2023-03-17T17:05:55.044Z,12.12
2023-03-17T17:08:25.032Z,12.05
2023-03-17T17:10:53.408Z,12.01
2023-03-17T17:13:22.320Z,11.97
2023-03-17T17:15:57.796Z,11.89
2023-03-17T17:18:31.761Z,11.77
2023-03-17T17:21:04.892Z,11.72
2023-03-17T17:23:36.585Z,11.66
2023-03-17T17:26:09.720Z,11.59
2023-03-17T17:28:49.344Z,11.49
2023-03-17T17:31:20.812Z,11.47
2023-03-17T17:33:50.072Z,11.38
2023-03-17T17:36:20.522Z,11.32
2023-03-17T17:38:51.763Z,11.22
2023-03-17T17:41:23.329Z,11.18
2023-03-17T17:43:56.256Z,11.14
2023-03-17T17:46:28.597Z,11.06
2023-03-17T17:49:00.334Z,11.05
2023-03-17T17:51:33.844Z,11.03
2023-03-17T17:54:07.027Z,10.98
2023-03-17T17:56:46.830Z,10.93
2023-03-17T17:59:19.264Z,10.88
2023-03-17T18:01:53.211Z,10.81
2023-03-17T18:04:21.717Z,10.81
2023-03-17T18:06:50.243Z,10.78
2023-03-17T18:09:22.497Z,10.75
2023-03-17T18:12:00.191Z,10.76
2023-03-17T18:14:29.419Z,10.81
2023-03-17T18:17:00.697Z,10.78
2023-03-17T18:19:28.902Z,10.71
2023-03-17T18:21:57.837Z,10.73
2023-03-17T18:24:27.977Z,10.72
2023-03-17T18:26:59.009Z,10.70
2023-03-17T18:29:27.702Z,10.67
2023-03-17T18:31:56.589Z,10.65
2023-03-17T18:34:29.578Z,10.60
2023-03-17T18:37:02.624Z,10.62
2023-03-17T18:39:34.097Z,10.64
2023-03-17T18:42:02.683Z,10.57
2023-03-17T18:44:36.422Z,10.58
2023-03-17T18:48:45.635Z,10.48
2023-03-17T18:51:13.938Z,10.43
2023-03-17T18:53:42.590Z,10.43
2023-03-17T18:56:16.100Z,10.36
2023-03-17T18:58:44.412Z,10.35
2023-03-17T19:01:13.672Z,10.28
2023-03-17T19:03:48.931Z,10.23
2023-03-17T19:06:19.766Z,10.13
2023-03-17T19:08:51.094Z,10.15
2023-03-17T19:11:21.804Z,10.12
2023-03-17T19:13:50.348Z,10.09
2023-03-17T19:16:18.780Z,10.06
2023-03-17T19:18:48.544Z,10.03
2023-03-17T19:21:16.642Z,10.02
2023-03-17T19:23:44.977Z,9.94
2023-03-17T19:26:13.242Z,9.88
2023-03-17T19:28:41.622Z,9.82
2023-03-17T19:31:12.373Z,9.79
2023-03-17T19:33:41.008Z,9.74
2023-03-17T19:36:13.095Z,9.67
2023-03-17T19:38:43.656Z,9.64
2023-03-17T19:41:11.779Z,9.59
2023-03-17T19:43:41.740Z,9.53
2023-03-17T19:46:11.642Z,9.54
2023-03-17T19:48:40.952Z,9.50
2023-03-17T19:51:11.566Z,9.43
2023-03-17T19:53:39.725Z,9.50
2023-03-17T19:56:08.744Z,9.52
2023-03-17T19:58:37.688Z,9.54
2023-03-17T20:01:08.477Z,9.50
2023-03-17T20:03:39.498Z,9.47
2023-03-17T20:06:07.639Z,9.50
2023-03-17T20:08:38.061Z,9.54
2023-03-17T20:11:07.019Z,9.55
2023-03-17T20:13:38.286Z,9.63
2023-03-17T20:16:08.103Z,9.42
2023-03-17T20:18:36.960Z,9.53
2023-03-17T20:21:07.796Z,9.50
2023-03-17T20:23:38.408Z,9.48
2023-03-17T20:26:09.466Z,9.44
2023-03-17T20:28:38.842Z,9.46
2023-03-17T20:31:08.145Z,9.38
2023-03-17T20:33:36.976Z,9.38
2023-03-17T20:36:06.235Z,9.35
2023-03-17T20:38:37.168Z,9.41
2023-03-17T20:41:08.832Z,9.40
2023-03-17T20:43:38.259Z,9.45
2023-03-17T20:46:08.813Z,9.44
2023-03-17T20:48:38.233Z,9.42
2023-03-17T20:51:07.073Z,9.46
2023-03-17T20:53:39.120Z,9.43
2023-03-17T20:56:09.251Z,9.43
2023-03-17T20:58:37.616Z,9.41
2023-03-17T21:01:06.020Z,9.38
2023-03-17T21:03:34.460Z,9.30
2023-03-17T21:06:05.363Z,9.36
2023-03-17T21:08:33.863Z,9.35
2023-03-17T21:11:09.221Z,9.30
2023-03-17T21:13:38.864Z,9.27
2023-03-17T21:16:07.535Z,9.25
2023-03-17T21:18:36.282Z,9.27
2023-03-17T21:21:04.898Z,9.28
2023-03-17T21:23:33.196Z,9.25
2023-03-17T21:26:01.824Z,9.19
2023-03-17T21:28:32.316Z,9.17
2023-03-17T21:31:01.971Z,9.14
2023-03-17T21:33:30.545Z,9.12
2023-03-17T21:35:59.450Z,9.10
2023-03-17T21:38:29.608Z,9.10
2023-03-17T21:40:58.862Z,9.06
2023-03-17T21:43:28.608Z,9.08
2023-03-17T21:46:03.887Z,9.09
2023-03-17T21:48:32.006Z,9.07
2023-03-17T21:51:00.124Z,8.83
2023-03-17T21:53:33.251Z,8.95
2023-03-17T21:56:02.056Z,8.95
2023-03-17T21:58:30.266Z,8.93
2023-03-17T22:01:01.526Z,8.91
2023-03-17T22:03:32.253Z,8.92
2023-03-17T22:06:00.869Z,8.92
2023-03-17T22:08:29.708Z,8.94
2023-03-17T22:10:58.307Z,8.92
2023-03-17T22:13:31.076Z,8.94
2023-03-17T22:15:59.431Z,8.95
2023-03-17T22:18:28.246Z,8.95
2023-03-17T22:20:58.936Z,8.91
2023-03-17T22:23:27.769Z,8.89
2023-03-17T22:25:56.573Z,9.00
2023-03-17T22:28:25.334Z,8.97
2023-03-17T22:30:54.545Z,8.96
2023-03-17T22:33:22.757Z,8.95
2023-03-17T22:35:51.103Z,8.96
2023-03-17T22:38:21.916Z,8.94
2023-03-17T22:41:01.884Z,8.94
2023-03-17T22:43:30.708Z,8.92
2023-03-17T22:45:58.951Z,8.93
2023-03-17T22:48:27.897Z,8.91
2023-03-17T22:51:03.147Z,8.94
2023-03-17T22:53:32.942Z,8.95
2023-03-17T22:56:01.638Z,8.96
2023-03-17T22:58:29.847Z,8.95
2023-03-17T23:01:00.253Z,8.98
2023-03-17T23:03:28.872Z,8.95
2023-03-17T23:06:02.005Z,8.94
2023-03-17T23:08:35.420Z,8.92
2023-03-17T23:11:06.440Z,8.73
2023-03-17T23:13:36.819Z,8.76
2023-03-17T23:16:06.728Z,8.86
2023-03-17T23:18:35.458Z,8.86
2023-03-17T23:21:05.337Z,8.86
2023-03-17T23:23:35.608Z,8.86
2023-03-17T23:26:06.912Z,8.86
2023-03-17T23:28:35.050Z,8.87
2023-03-17T23:31:03.894Z,8.88
2023-03-17T23:33:34.926Z,8.92
2023-03-17T23:36:03.669Z,8.92
2023-03-17T23:38:32.481Z,8.94
2023-03-17T23:41:04.950Z,8.94
2023-03-17T23:43:34.112Z,8.94
2023-03-17T23:46:04.351Z,8.92
2023-03-17T23:49:46.156Z,8.88
2023-03-17T23:52:15.551Z,8.84
2023-03-17T23:54:44.082Z,8.81
2023-03-17T23:57:16.018Z,8.83
2023-03-17T23:59:44.291Z,8.87
